Eastwood, United Kingdom
Current Conditions -  °F | °C
As of 9:50 PM on Saturday 25 Oct 2014 (Local Time) from EGNX Reporting Station
Broken Clouds Broken Clouds  
Wind Chill: 12°   Ceiling: 3800
Heat Index: 12°   Visibility: 6mi
Dew Point:   Wind: 16mph
Humidity: 82%   Direction: 220°SW
Pressure: 30.03"   Gusts: NA
Location:  53°N, 1.3°W
Report Text: EGNX 252050Z 22014KT 9999 FEW033 BKN038 12/09 Q1017
Loading
Personal Weather Stations






























Interactive Weather Map
Tropical Storm Tracking
New forecast layout! Learn more

10-Day Weather Forecast

Advertisements
Track Severe Weather on mobile